Time,TemperatureF,DewpointF,PressureIn,WindDirection,WindDirectionDegrees,WindSpeedMPH,WindSpeedGustMPH,Humidity,HourlyPrecipIn,Conditions,Clouds,dailyrainin,SolarRadiationWatts/m^2,SoftwareType,DateUTC
2013-08-13 00:02:00,56.0,56.0,-100.00,South,177,0.0,0.0,100,0.00,,,0.28,0.000000,,2013-08-13 08:02:00,
2013-08-13 00:11:00,56.0,56.0,-100.00,South,177,0.0,0.0,100,0.00,,,0.28,0.000000,,2013-08-13 08:11:00,
2013-08-13 00:21:00,56.0,56.0,-100.00,South,177,0.0,0.0,100,0.00,,,0.28,0.000000,,2013-08-13 08:21:00,
2013-08-13 00:52:00,53.0,53.0,-100.00,SSW,213,1.0,2.0,100,0.00,,,0.25,0.000000,,2013-08-13 08:52:00,
2013-08-13 01:01:00,53.0,53.0,-100.00,SSW,213,1.0,2.0,100,0.00,,,0.25,0.000000,,2013-08-13 09:01:00,
2013-08-13 01:11:00,53.0,53.0,-100.00,SSW,213,1.0,2.0,100,0.00,,,0.25,0.000000,,2013-08-13 09:11:00,
2013-08-13 01:21:00,53.0,53.0,-100.00,SSW,213,1.0,2.0,100,0.00,,,0.25,0.000000,,2013-08-13 09:21:00,
2013-08-13 01:53:00,54.0,54.0,-100.00,SSW,211,1.0,3.0,100,0.00,,,-99.99,0.000000,,2013-08-13 09:53:00,
2013-08-13 02:03:00,54.0,54.0,-100.00,SSW,211,1.0,3.0,100,0.00,,,-99.99,0.000000,,2013-08-13 10:03:00,
2013-08-13 02:12:00,54.0,54.0,-100.00,SSW,211,1.0,3.0,100,0.00,,,-99.99,0.000000,,2013-08-13 10:12:00,
2013-08-13 02:23:00,54.0,54.0,-100.00,SSW,211,1.0,3.0,100,0.00,,,-99.99,0.000000,,2013-08-13 10:23:00,
2013-08-13 02:52:00,54.0,54.0,-100.00,SW,233,1.0,4.0,100,0.00,,,0.17,0.000000,,2013-08-13 10:52:00,
2013-08-13 03:02:00,54.0,54.0,-100.00,SW,233,1.0,4.0,100,0.00,,,0.17,0.000000,,2013-08-13 11:02:00,
2013-08-13 03:11:00,54.0,54.0,-100.00,SW,233,1.0,4.0,100,0.00,,,0.17,0.000000,,2013-08-13 11:11:00,
2013-08-13 03:22:00,54.0,54.0,-100.00,SW,233,1.0,4.0,100,0.00,,,0.17,0.000000,,2013-08-13 11:22:00,
2013-08-13 03:52:00,51.0,51.0,-100.00,South,180,2.0,4.0,100,0.00,,,0.14,0.000000,,2013-08-13 11:52:00,
2013-08-13 04:01:00,51.0,51.0,-100.00,South,180,2.0,4.0,100,0.00,,,0.14,0.000000,,2013-08-13 12:01:00,
2013-08-13 04:12:00,51.0,51.0,-100.00,South,180,2.0,4.0,100,0.00,,,0.14,0.000000,,2013-08-13 12:12:00,
2013-08-13 04:21:00,51.0,51.0,-100.00,South,180,2.0,4.0,100,0.00,,,0.14,0.000000,,2013-08-13 12:21:00,
2013-08-13 04:52:00,52.0,52.0,-100.00,SSW,208,2.0,7.0,100,0.00,,,0.13,0.000000,,2013-08-13 12:52:00,
2013-08-13 05:01:00,52.0,52.0,-100.00,SSW,208,2.0,7.0,100,0.00,,,0.13,0.000000,,2013-08-13 13:01:00,
2013-08-13 05:11:00,52.0,52.0,-100.00,SSW,208,2.0,7.0,100,0.00,,,0.13,0.000000,,2013-08-13 13:11:00,
2013-08-13 05:21:00,52.0,52.0,-100.00,SSW,208,2.0,7.0,100,0.00,,,0.13,0.000000,,2013-08-13 13:21:00,
2013-08-13 05:52:00,49.0,48.0,-100.00,West,263,2.0,5.0,96,0.00,,,-99.99,0.000000,,2013-08-13 13:52:00,
2013-08-13 06:02:00,49.0,48.0,-100.00,West,263,2.0,5.0,96,0.00,,,-99.99,0.000000,,2013-08-13 14:02:00,
2013-08-13 06:11:00,49.0,48.0,-100.00,West,263,2.0,5.0,96,0.00,,,-99.99,0.000000,,2013-08-13 14:11:00,
2013-08-13 06:21:00,49.0,48.0,-100.00,West,263,2.0,5.0,96,0.00,,,-99.99,0.000000,,2013-08-13 14:21:00,
2013-08-13 06:52:00,49.0,49.0,-100.00,South,181,2.0,4.0,99,0.00,,,0.05,3.000000,,2013-08-13 14:52:00,
2013-08-13 07:02:00,49.0,49.0,-100.00,South,181,2.0,4.0,99,0.00,,,0.05,3.000000,,2013-08-13 15:02:00,
2013-08-13 07:11:00,49.0,49.0,-100.00,South,181,2.0,4.0,99,0.00,,,0.05,3.000000,,2013-08-13 15:11:00,
2013-08-13 07:21:00,49.0,49.0,-100.00,South,181,2.0,4.0,99,0.00,,,0.05,3.000000,,2013-08-13 15:21:00,
2013-08-13 07:54:00,51.0,51.0,-100.00,West,263,2.0,5.0,100,0.00,,,0.03,32.000000,,2013-08-13 15:54:00,
2013-08-13 08:03:00,51.0,51.0,-100.00,West,263,2.0,5.0,100,0.00,,,0.03,32.000000,,2013-08-13 16:03:00,
2013-08-13 08:13:00,51.0,51.0,-100.00,West,263,2.0,5.0,100,0.00,,,0.03,32.000000,,2013-08-13 16:13:00,
2013-08-13 08:23:00,51.0,51.0,-100.00,West,263,2.0,5.0,100,0.00,,,0.03,32.000000,,2013-08-13 16:23:00,
2013-08-13 08:54:00,58.0,57.0,-100.00,South,177,2.0,5.0,95,0.00,,,0.01,85.000000,,2013-08-13 16:54:00,
2013-08-13 09:05:00,58.0,57.0,-100.00,South,177,2.0,5.0,95,0.00,,,0.01,85.000000,,2013-08-13 17:05:00,
2013-08-13 09:16:00,58.0,57.0,-100.00,South,177,2.0,5.0,95,0.00,,,0.01,85.000000,,2013-08-13 17:16:00,
2013-08-13 09:27:00,58.0,57.0,-100.00,South,177,2.0,5.0,95,0.00,,,0.01,85.000000,,2013-08-13 17:27:00,
2013-08-13 09:46:00,-999.0,-99.9,-100.00,SE,144,2.0,4.0,-999,0.00,,,0.00,137.000000,,2013-08-13 17:46:00,
2013-08-13 09:56:00,63.0,56.0,-100.00,SE,144,2.0,4.0,78,0.00,,,0.00,137.000000,,2013-08-13 17:56:00,
2013-08-13 10:05:00,63.0,56.0,-100.00,SE,144,2.0,4.0,78,0.00,,,0.00,137.000000,,2013-08-13 18:05:00,
2013-08-13 10:15:00,63.0,56.0,-100.00,SE,144,2.0,4.0,78,0.00,,,0.00,137.000000,,2013-08-13 18:15:00,
2013-08-13 10:25:00,63.0,56.0,-100.00,SE,144,2.0,4.0,78,0.00,,,0.00,137.000000,,2013-08-13 18:25:00,
2013-08-13 10:56:00,65.0,59.0,-100.00,ENE,78,3.0,6.0,82,0.00,,,0.00,270.000000,,2013-08-13 18:56:00,
2013-08-13 11:04:00,65.0,59.0,-100.00,ENE,78,3.0,6.0,82,0.00,,,0.00,270.000000,,2013-08-13 19:04:00,
2013-08-13 11:14:00,65.0,59.0,-100.00,ENE,78,3.0,6.0,82,0.00,,,0.00,270.000000,,2013-08-13 19:14:00,
2013-08-13 11:24:00,65.0,59.0,-100.00,ENE,78,3.0,6.0,82,0.00,,,0.00,270.000000,,2013-08-13 19:24:00,
2013-08-13 11:55:00,66.0,60.0,-100.00,SSW,210,2.0,5.0,81,0.00,,,0.00,269.000000,,2013-08-13 19:55:00,
2013-08-13 12:04:00,66.0,60.0,-100.00,SSW,210,2.0,5.0,81,0.00,,,0.00,269.000000,,2013-08-13 20:04:00,
2013-08-13 12:15:00,66.0,60.0,-100.00,SSW,210,2.0,5.0,81,0.00,,,0.00,269.000000,,2013-08-13 20:15:00,
2013-08-13 12:22:00,66.0,60.0,-100.00,SSW,210,2.0,5.0,81,0.00,,,0.00,269.000000,,2013-08-13 20:22:00,
2013-08-13 12:53:00,66.0,59.0,-100.00,ENE,77,2.0,7.0,77,0.00,,,0.00,310.000000,,2013-08-13 20:53:00,
2013-08-13 13:01:00,66.0,59.0,-100.00,ENE,77,2.0,7.0,77,0.00,,,0.00,310.000000,,2013-08-13 21:01:00,
2013-08-13 13:11:00,66.0,59.0,-100.00,ENE,77,2.0,7.0,77,0.00,,,0.00,310.000000,,2013-08-13 21:11:00,
2013-08-13 13:24:00,66.0,59.0,-100.00,ENE,77,2.0,7.0,77,0.00,,,0.00,310.000000,,2013-08-13 21:24:00,
2013-08-13 13:54:00,65.0,58.0,-100.00,South,169,2.0,5.0,78,0.00,,,0.00,162.000000,,2013-08-13 21:54:00,
2013-08-13 14:03:00,65.0,58.0,-100.00,South,169,2.0,5.0,78,0.00,,,0.00,162.000000,,2013-08-13 22:03:00,
2013-08-13 14:13:00,65.0,58.0,-100.00,South,169,2.0,5.0,78,0.00,,,0.00,162.000000,,2013-08-13 22:13:00,
2013-08-13 14:22:00,65.0,58.0,-100.00,South,169,2.0,5.0,78,0.00,,,0.00,162.000000,,2013-08-13 22:22:00,
2013-08-13 14:57:00,69.0,60.0,-100.00,ESE,107,2.0,5.0,73,0.00,,,0.00,282.000000,,2013-08-13 22:57:00,
2013-08-13 15:03:00,69.0,60.0,-100.00,ESE,107,2.0,5.0,73,0.00,,,0.00,282.000000,,2013-08-13 23:03:00,
2013-08-13 15:13:00,69.0,60.0,-100.00,ESE,107,2.0,5.0,73,0.00,,,0.00,282.000000,,2013-08-13 23:13:00,
2013-08-13 15:26:00,69.0,60.0,-100.00,ESE,107,2.0,5.0,73,0.00,,,0.00,282.000000,,2013-08-13 23:26:00,
2013-08-13 15:57:00,72.0,60.0,-100.00,East,94,3.0,6.0,67,0.00,,,0.00,449.000000,,2013-08-13 23:57:00,
2013-08-13 16:03:00,72.0,60.0,-100.00,East,94,3.0,6.0,67,0.00,,,0.00,449.000000,,2013-08-14 00:03:00,
2013-08-13 16:11:00,72.0,60.0,-100.00,East,94,3.0,6.0,67,0.00,,,0.00,449.000000,,2013-08-14 00:11:00,
2013-08-13 16:21:00,72.0,60.0,-100.00,East,94,3.0,6.0,67,0.00,,,0.00,449.000000,,2013-08-14 00:21:00,
2013-08-13 16:52:00,68.0,57.0,-100.00,SSE,162,1.0,6.0,68,0.00,,,0.00,226.000000,,2013-08-14 00:52:00,
2013-08-13 17:01:00,68.0,57.0,-100.00,SSE,162,1.0,6.0,68,0.00,,,0.00,226.000000,,2013-08-14 01:01:00,
2013-08-13 17:11:00,68.0,57.0,-100.00,SSE,162,1.0,6.0,68,0.00,,,0.00,226.000000,,2013-08-14 01:11:00,
2013-08-13 17:21:00,68.0,57.0,-100.00,SSE,162,1.0,6.0,68,0.00,,,0.00,226.000000,,2013-08-14 01:21:00,
2013-08-13 17:52:00,69.0,59.0,-100.00,NNW,348,2.0,4.0,70,0.00,,,0.00,187.000000,,2013-08-14 01:52:00,
2013-08-13 18:02:00,69.0,59.0,-100.00,NNW,348,2.0,4.0,70,0.00,,,0.00,187.000000,,2013-08-14 02:02:00,
2013-08-13 18:11:00,69.0,59.0,-100.00,NNW,348,2.0,4.0,70,0.00,,,0.00,187.000000,,2013-08-14 02:11:00,
2013-08-13 18:21:00,69.0,59.0,-100.00,NNW,348,2.0,4.0,70,0.00,,,0.00,187.000000,,2013-08-14 02:21:00,
2013-08-13 18:52:00,65.0,54.0,-100.00,North,356,5.0,9.0,67,0.00,,,0.00,294.000000,,2013-08-14 02:52:00,
2013-08-13 19:01:00,65.0,54.0,-100.00,North,356,5.0,9.0,67,0.00,,,0.00,294.000000,,2013-08-14 03:01:00,
2013-08-13 19:11:00,65.0,54.0,-100.00,North,356,5.0,9.0,67,0.00,,,0.00,294.000000,,2013-08-14 03:11:00,
2013-08-13 19:22:00,65.0,54.0,-100.00,North,356,5.0,9.0,67,0.00,,,0.00,294.000000,,2013-08-14 03:22:00,
2013-08-13 19:53:00,62.0,57.0,-100.00,North,349,4.0,8.0,85,0.00,,,0.00,139.000000,,2013-08-14 03:53:00,
2013-08-13 20:03:00,62.0,57.0,-100.00,North,349,4.0,8.0,85,0.00,,,0.00,139.000000,,2013-08-14 04:03:00,
2013-08-13 20:12:00,62.0,57.0,-100.00,North,349,4.0,8.0,85,0.00,,,0.00,139.000000,,2013-08-14 04:12:00,
2013-08-13 20:23:00,62.0,57.0,-100.00,North,349,4.0,8.0,85,0.00,,,0.00,139.000000,,2013-08-14 04:23:00,
2013-08-13 20:52:00,59.0,56.0,-100.00,NNW,342,3.0,7.0,90,0.00,,,0.00,31.000000,,2013-08-14 04:52:00,
2013-08-13 21:02:00,59.0,56.0,-100.00,NNW,342,3.0,7.0,90,0.00,,,0.00,31.000000,,2013-08-14 05:02:00,
2013-08-13 21:12:00,59.0,56.0,-100.00,NNW,342,3.0,7.0,90,0.00,,,0.00,31.000000,,2013-08-14 05:12:00,
2013-08-13 21:22:00,59.0,56.0,-100.00,NNW,342,3.0,7.0,90,0.00,,,0.00,31.000000,,2013-08-14 05:22:00,
2013-08-13 21:52:00,57.0,54.0,-100.00,NW,315,5.0,11.0,90,0.00,,,0.00,6.000000,,2013-08-14 05:52:00,
2013-08-13 22:01:00,57.0,54.0,-100.00,NW,315,5.0,11.0,90,0.00,,,0.00,6.000000,,2013-08-14 06:01:00,
2013-08-13 22:11:00,57.0,54.0,-100.00,NW,315,5.0,11.0,90,0.00,,,0.00,6.000000,,2013-08-14 06:11:00,
2013-08-13 22:21:00,57.0,54.0,-100.00,NW,315,5.0,11.0,90,0.00,,,0.00,6.000000,,2013-08-14 06:21:00,
2013-08-13 22:52:00,55.0,53.0,-100.00,NW,309,2.0,7.0,94,0.00,,,0.00,2.000000,,2013-08-14 06:52:00,
2013-08-13 23:01:00,55.0,53.0,-100.00,NW,309,2.0,7.0,94,0.00,,,0.00,2.000000,,2013-08-14 07:01:00,
2013-08-13 23:11:00,55.0,53.0,-100.00,NW,309,2.0,7.0,94,0.00,,,0.00,2.000000,,2013-08-14 07:11:00,
2013-08-13 23:21:00,55.0,53.0,-100.00,NW,309,2.0,7.0,94,0.00,,,0.00,2.000000,,2013-08-14 07:21:00,
2013-08-13 23:52:00,56.0,55.0,-100.00,NW,325,3.0,7.0,97,0.00,,,0.00,0.000000,,2013-08-14 07:52:00,